Waterfall — CZ7171 — position and weather

sailwx.info

Track history (hours):
 
Tides and Currents Weather Stations Pressure Air Temp Water Temp Dewpoint Dewpoint Depression Visibility Wind Speed Wind Dir Waves Ship Positions

Waterfall

Last reported at 2018-Apr-22 17:59 UTC. Time now 2018-Jun-18 02:14 UTC.
Position N 50°36' W 127°04'.
Warning: this ship's position is 56 days out of date.

Length 20 m; draft 3 m.

Type: Fishing. MMSI: 316006199.

Date/timePositionNaut miles runAvg speedWind from/ knotsBaromVisibWave heightAir tempDewpointWater temp
2018-Apr-22 17:59N 50°36' W 127°04'14 6.0
2018-Apr-22 15:36N 50°44' W 127°22'1 7.5
2018-Apr-22 15:30N 50°45' W 127°23'3 5.3
2018-Apr-22 14:59N 50°45' W 127°27'1 0.2
2018-Apr-22 07:45N 50°43' W 127°28'1 4.9
2018-Apr-22 07:30N 50°45' W 127°28'3 5.2
2018-Apr-22 07:00N 50°47' W 127°30'4 7.0
2018-Apr-22 06:30N 50°48' W 127°35'3 6.1
2018-Apr-22 06:00N 50°51' W 127°36'4 7.3
2018-Apr-22 05:30N 50°54' W 127°39'4 7.1
2018-Apr-22 04:59N 50°57' W 127°43'4 7.3
2018-Apr-22 04:30N 51°00' W 127°46'3 6.9
2018-Apr-22 04:00N 51°03' W 127°48'3 7.0
2018-Apr-22 03:30N 51°07' W 127°49'4 7.3
2018-Apr-22 03:00N 51°10' W 127°51'19 7.1
2018-Apr-22 00:17N 51°27' W 128°07'2 7.0
2018-Apr-22 00:00N 51°28' W 128°09'3 6.8
2018-Apr-21 23:30N 51°31' W 128°12'3 6.6
2018-Apr-21 23:00N 51°34' W 128°15'3 6.3
2018-Apr-21 22:30N 51°37' W 128°17'25 6.3
2018-Apr-21 18:35N 51°59' W 128°33'1 6.3
2018-Apr-21 18:30N 51°60' W 128°33'3 6.3
2018-Apr-21 18:00N 52°03' W 128°34'3 6.3
2018-Apr-21 17:30N 52°06' W 128°35'21 6.5
2018-Apr-21 14:21N 52°26' W 128°29'100 6.2
2018-Apr-20 22:15N 53°50' W 130°01'1 5.5
2018-Apr-20 21:59N 53°51' W 130°02'3 5.8
2018-Apr-20 21:30N 53°53' W 130°05'3 6.1
2018-Apr-20 21:00N 53°55' W 130°10'3 6.0
2018-Apr-20 20:30N 53°57' W 130°12'3 5.9
2018-Apr-20 20:00N 54°00' W 130°13'3 5.5
2018-Apr-20 19:30N 54°03' W 130°14'3 5.9
2018-Apr-20 19:00N 54°06' W 130°17'3 6.2
2018-Apr-20 18:30N 54°08' W 130°19'3 6.4
2018-Apr-20 18:00N 54°11' W 130°21'4 7.9
2018-Apr-20 17:30N 54°15' W 130°21'3 4.9
2018-Apr-20 16:59N 54°18' W 130°21'2 4.0
2018-Apr-20 16:30N 54°19' W 130°19'0 0.0
2018-Apr-20 16:00N 54°19' W 130°19'0 0.0
2018-Apr-20 15:30N 54°19' W 130°19'0 0.0
2018-Apr-20 15:01N 54°19' W 130°19'0 0.0
2018-Apr-20 14:30N 54°19' W 130°19'0 0.0
2018-Apr-20 14:00N 54°19' W 130°19'0 0.0
2018-Apr-20 13:30N 54°19' W 130°19'0 0.0
2018-Apr-20 13:00N 54°19' W 130°19'0 0.0
2018-Apr-20 12:30N 54°19' W 130°19'0 0.0
2018-Apr-20 12:00N 54°19' W 130°19'0 0.0
2018-Apr-20 11:30N 54°19' W 130°19'0 0.0
2018-Apr-20 11:00N 54°19' W 130°19'0 0.0
2018-Apr-20 10:30N 54°19' W 130°19'0 0.0
2018-Apr-20 10:00N 54°19' W 130°19'0 0.0
2018-Apr-20 09:30N 54°19' W 130°19'0 0.0
2018-Apr-20 09:00N 54°19' W 130°19'0 0.0
2018-Apr-20 08:30N 54°19' W 130°19'0 0.0
2018-Apr-20 08:00N 54°19' W 130°19'0 0.0
2018-Apr-20 07:30N 54°19' W 130°19'0 0.0
2018-Apr-20 06:59N 54°19' W 130°19'0 0.0
2018-Apr-20 06:30N 54°19' W 130°19'0 0.0
2018-Apr-20 06:00N 54°19' W 130°19'0 0.0
2018-Apr-20 05:30N 54°19' W 130°19'0 0.0
2018-Apr-20 05:00N 54°19' W 130°19'0 0.0
2018-Apr-20 04:30N 54°19' W 130°19'0 0.0
2018-Apr-20 04:00N 54°19' W 130°19'0 0.0
2018-Apr-20 03:30N 54°19' W 130°19'0 0.0
2018-Apr-20 03:00N 54°19' W 130°19'0 0.0
2018-Apr-20 02:30N 54°19' W 130°19'0 0.0
2018-Apr-20 02:00N 54°19' W 130°19'0 0.0
2018-Apr-20 01:31N 54°19' W 130°19'0 0.0
2018-Apr-20 01:00N 54°19' W 130°19'0 0.0
2018-Apr-20 00:30N 54°19' W 130°19'0 0.0
2018-Apr-20 00:00N 54°19' W 130°19'0 0.0
2018-Apr-19 23:30N 54°19' W 130°19'0 0.0
2018-Apr-19 23:00N 54°19' W 130°19'0 0.0
2018-Apr-19 22:30N 54°19' W 130°19'0 0.0
2018-Apr-19 22:01N 54°19' W 130°19'0 0.0
2018-Apr-19 21:30N 54°19' W 130°19'0 0.0
2018-Apr-19 21:00N 54°19' W 130°19'0 0.0
2018-Apr-19 20:30N 54°19' W 130°19'0 0.0
2018-Apr-19 20:00N 54°19' W 130°19'0 0.0
2018-Apr-19 19:30N 54°19' W 130°19'0 0.0
2018-Apr-19 19:00N 54°19' W 130°19'0 0.0
2018-Apr-19 18:30N 54°19' W 130°19'0 0.0
2018-Apr-19 17:58N 54°19' W 130°19'0 0.0
2018-Apr-19 17:30N 54°19' W 130°19'0 0.0
2018-Apr-19 17:00N 54°19' W 130°19'0 0.0
2018-Apr-19 16:30N 54°19' W 130°19'0 0.0
2018-Apr-19 16:00N 54°19' W 130°19'0 0.0
2018-Apr-19 15:30N 54°19' W 130°19'0 0.0
2018-Apr-19 15:00N 54°19' W 130°19'0 0.0
2018-Apr-19 14:31N 54°19' W 130°19'0 0.0
2018-Apr-19 14:00N 54°19' W 130°19'0 0.0
2018-Apr-19 13:30N 54°19' W 130°19'0 0.0
2018-Apr-19 13:00N 54°19' W 130°19'0 0.0
2018-Apr-19 12:30N 54°19' W 130°19'0 0.0
2018-Apr-19 12:01N 54°19' W 130°19'0 0.0
2018-Apr-19 11:30N 54°19' W 130°19'0 0.0
2018-Apr-19 11:00N 54°19' W 130°19'0 0.0
2018-Apr-19 10:30N 54°19' W 130°19'0 0.0
2018-Apr-19 10:00N 54°19' W 130°19'0 0.0
2018-Apr-19 09:31N 54°19' W 130°19'0 0.0
2018-Apr-19 09:00N 54°19' W 130°19'0 0.0
2018-Apr-19 08:30N 54°19' W 130°19'0 0.0
2018-Apr-19 08:00N 54°19' W 130°19'0 0.0
2018-Apr-19 07:30N 54°19' W 130°19'0 0.0
2018-Apr-19 06:59N 54°19' W 130°19'0 0.0
2018-Apr-19 06:31N 54°19' W 130°19'0 0.0
2018-Apr-19 06:00N 54°19' W 130°19'0 0.0
2018-Apr-19 05:30N 54°19' W 130°19'0 0.0
2018-Apr-19 05:00N 54°19' W 130°19'0 0.0
2018-Apr-19 04:30N 54°19' W 130°19'0 0.0
2018-Apr-19 04:00N 54°19' W 130°19'0 0.0
2018-Apr-19 03:30N 54°19' W 130°19'0 0.0
2018-Apr-19 03:00N 54°19' W 130°19'0 0.0
2018-Apr-19 02:30N 54°19' W 130°19'0 0.0
2018-Apr-19 02:00N 54°19' W 130°19'0 0.0
2018-Apr-19 01:30N 54°19' W 130°19'0 0.0
2018-Apr-19 01:00N 54°19' W 130°19'0 0.0
2018-Apr-19 00:30N 54°19' W 130°19'0 0.0
2018-Apr-19 00:00N 54°19' W 130°19'0 0.0
2018-Apr-18 23:30N 54°19' W 130°19'0 0.0
2018-Apr-18 23:00N 54°19' W 130°19'0 0.0
2018-Apr-18 22:30N 54°19' W 130°19'0 0.0
2018-Apr-18 22:00N 54°19' W 130°19'0 0.0
2018-Apr-18 21:31N 54°19' W 130°19'0 0.0
2018-Apr-18 21:00N 54°19' W 130°19'0 0.0
2018-Apr-18 20:30N 54°19' W 130°19'0 0.0
2018-Apr-18 20:00N 54°19' W 130°19'0 0.0
2018-Apr-18 19:30N 54°19' W 130°19'0 0.0
2018-Apr-18 19:00N 54°19' W 130°19'0 0.0
2018-Apr-18 18:27N 54°19' W 130°19'0 0.0
2018-Apr-18 18:00N 54°19' W 130°19'0 0.0
2018-Apr-18 17:29N 54°19' W 130°19'0 0.0
2018-Apr-18 17:00N 54°19' W 130°19'0 0.0
2018-Apr-18 16:28N 54°19' W 130°19'0 0.0
2018-Apr-18 16:00N 54°19' W 130°19'0 0.0
2018-Apr-18 15:31N 54°19' W 130°19'0 0.0
2018-Apr-18 15:01N 54°19' W 130°19'0 0.0
2018-Apr-18 14:30N 54°19' W 130°19'0 0.0
2018-Apr-18 14:00N 54°19' W 130°19'0 0.0
2018-Apr-18 13:30N 54°19' W 130°19'0 0.0
2018-Apr-18 13:00N 54°19' W 130°19'0 0.0
2018-Apr-18 12:30N 54°19' W 130°19'0 0.0
2018-Apr-18 12:00N 54°19' W 130°19'0 0.0
2018-Apr-18 11:30N 54°19' W 130°19'0 0.0
2018-Apr-18 10:59N 54°19' W 130°19'0 0.0
2018-Apr-18 10:30N 54°19' W 130°19'0 0.0
2018-Apr-18 09:56N 54°19' W 130°19'0 0.0
2018-Apr-18 09:30N 54°19' W 130°19'0 0.0
2018-Apr-18 09:01N 54°19' W 130°19'0 0.0
2018-Apr-18 08:30N 54°19' W 130°19'0 0.0
2018-Apr-18 08:01N 54°19' W 130°19'0 0.0
2018-Apr-18 07:30N 54°19' W 130°19'0 0.0
2018-Apr-18 07:00N 54°19' W 130°19'0 0.0
2018-Apr-18 06:30N 54°19' W 130°19'0 0.0
2018-Apr-18 06:00N 54°19' W 130°19'0 0.0
2018-Apr-18 05:30N 54°19' W 130°19'0 0.0
2018-Apr-18 05:00N 54°19' W 130°19'0 0.0
2018-Apr-18 04:30N 54°19' W 130°19'0 0.0
2018-Apr-18 04:00N 54°19' W 130°19'0 0.0
2018-Apr-18 03:31N 54°19' W 130°19'0 0.0
2018-Apr-18 03:00N 54°19' W 130°19'0 0.0
2018-Apr-18 02:30N 54°19' W 130°19'0 0.0
2018-Apr-18 02:00N 54°19' W 130°19'0 0.0
2018-Apr-18 01:31N 54°19' W 130°19'0 0.0
2018-Apr-18 01:00N 54°19' W 130°19'0 0.0
2018-Apr-18 00:30N 54°19' W 130°19'0 0.0
2018-Apr-18 00:00N 54°19' W 130°19'0 0.0
2018-Apr-17 23:30N 54°19' W 130°19'0 0.0
2018-Apr-17 23:00N 54°19' W 130°19'0 0.0
2018-Apr-17 22:30N 54°19' W 130°19'0 0.0
2018-Apr-17 22:00N 54°19' W 130°19'0 0.0
2018-Apr-17 21:31N 54°19' W 130°19'0 0.0
2018-Apr-17 21:00N 54°19' W 130°19'0 0.0
2018-Apr-17 20:30N 54°19' W 130°19'0 0.0
2018-Apr-17 20:00N 54°19' W 130°19'0 0.0
2018-Apr-17 19:30N 54°19' W 130°19'0 0.0
2018-Apr-17 19:00N 54°19' W 130°19'0 0.0
2018-Apr-17 18:30N 54°19' W 130°19'0 0.0
2018-Apr-17 18:00N 54°19' W 130°19'0 0.0
2018-Apr-17 17:30N 54°19' W 130°19'0 0.1
2018-Apr-17 17:00N 54°19' W 130°19'0 0.1
2018-Apr-17 16:30N 54°19' W 130°19'0 0.0
2018-Apr-17 16:00N 54°19' W 130°19'0 0.0
2018-Apr-17 15:27N 54°19' W 130°19'0 0.0
2018-Apr-17 15:00N 54°19' W 130°19'0 0.4
2018-Apr-17 14:22N 54°19' W 130°19'0 0.0
2018-Apr-17 13:52N 54°19' W 130°19'0 0.0
2018-Apr-17 13:30N 54°19' W 130°19'0 0.0
2018-Apr-17 13:00N 54°19' W 130°19'0 0.0
2018-Apr-17 12:30N 54°19' W 130°19'0 0.0
2018-Apr-17 12:00N 54°19' W 130°19'0 0.0
2018-Apr-17 11:29N 54°19' W 130°19'0 0.0
2018-Apr-17 11:00N 54°19' W 130°19'0 0.0
2018-Apr-17 10:30N 54°19' W 130°19'1 2.0
2018-Apr-17 10:00N 54°18' W 130°21'3 6.7
2018-Apr-17 09:30N 54°15' W 130°21'2 4.9
2018-Apr-17 09:00N 54°13' W 130°24'3 6.6
2018-Apr-17 08:30N 54°14' W 130°29'3 6.1
2018-Apr-17 08:00N 54°15' W 130°34'3 5.4
2018-Apr-17 07:30N 54°15' W 130°39'3 6.8
2018-Apr-17 07:00N 54°17' W 130°44'3 6.9
2018-Apr-17 06:30N 54°19' W 130°49'3 6.9
2018-Apr-17 06:00N 54°19' W 130°55'3 6.5
2018-Apr-17 05:30N 54°19' W 131°01'3 6.8
2018-Apr-17 05:00N 54°19' W 131°06'4 7.3
2018-Apr-17 04:30N 54°19' W 131°13'4 7.7
2018-Apr-17 04:00N 54°18' W 131°19'  
Track history (hours):
 
Tides and Currents Weather Stations Pressure Air Temp Water Temp Dewpoint Dewpoint Depression Visibility Wind Speed Wind Dir Waves Ship Positions

Waterfall

Last reported at 2018-Apr-22 17:59 UTC. Time now 2018-Jun-18 02:14 UTC.
Position N 50°36' W 127°04'.
Warning: this ship's position is 56 days out of date.

Length 20 m; draft 3 m.

Type: Fishing. MMSI: 316006199.

Date/timePositionNaut miles runAvg speedWind from/ knotsBaromVisibWave heightAir tempDewpointWater temp
2018-Apr-22 17:59N 50°36' W 127°04'14 6.0
2018-Apr-22 15:36N 50°44' W 127°22'1 7.5
2018-Apr-22 15:30N 50°45' W 127°23'3 5.3
2018-Apr-22 14:59N 50°45' W 127°27'1 0.2
2018-Apr-22 07:45N 50°43' W 127°28'1 4.9
2018-Apr-22 07:30N 50°45' W 127°28'3 5.2
2018-Apr-22 07:00N 50°47' W 127°30'4 7.0
2018-Apr-22 06:30N 50°48' W 127°35'3 6.1
2018-Apr-22 06:00N 50°51' W 127°36'4 7.3
2018-Apr-22 05:30N 50°54' W 127°39'4 7.1
2018-Apr-22 04:59N 50°57' W 127°43'4 7.3
2018-Apr-22 04:30N 51°00' W 127°46'3 6.9
2018-Apr-22 04:00N 51°03' W 127°48'3 7.0
2018-Apr-22 03:30N 51°07' W 127°49'4 7.3
2018-Apr-22 03:00N 51°10' W 127°51'19 7.1
2018-Apr-22 00:17N 51°27' W 128°07'2 7.0
2018-Apr-22 00:00N 51°28' W 128°09'3 6.8
2018-Apr-21 23:30N 51°31' W 128°12'3 6.6
2018-Apr-21 23:00N 51°34' W 128°15'3 6.3
2018-Apr-21 22:30N 51°37' W 128°17'25 6.3
2018-Apr-21 18:35N 51°59' W 128°33'1 6.3
2018-Apr-21 18:30N 51°60' W 128°33'3 6.3
2018-Apr-21 18:00N 52°03' W 128°34'3 6.3
2018-Apr-21 17:30N 52°06' W 128°35'21 6.5
2018-Apr-21 14:21N 52°26' W 128°29'100 6.2
2018-Apr-20 22:15N 53°50' W 130°01'1 5.5
2018-Apr-20 21:59N 53°51' W 130°02'3 5.8
2018-Apr-20 21:30N 53°53' W 130°05'3 6.1
2018-Apr-20 21:00N 53°55' W 130°10'3 6.0
2018-Apr-20 20:30N 53°57' W 130°12'3 5.9
2018-Apr-20 20:00N 54°00' W 130°13'3 5.5
2018-Apr-20 19:30N 54°03' W 130°14'3 5.9
2018-Apr-20 19:00N 54°06' W 130°17'3 6.2
2018-Apr-20 18:30N 54°08' W 130°19'3 6.4
2018-Apr-20 18:00N 54°11' W 130°21'4 7.9
2018-Apr-20 17:30N 54°15' W 130°21'3 4.9
2018-Apr-20 16:59N 54°18' W 130°21'2 4.0
2018-Apr-20 16:30N 54°19' W 130°19'0 0.0
2018-Apr-20 16:00N 54°19' W 130°19'0 0.0
2018-Apr-20 15:30N 54°19' W 130°19'0 0.0
2018-Apr-20 15:01N 54°19' W 130°19'0 0.0
2018-Apr-20 14:30N 54°19' W 130°19'0 0.0
2018-Apr-20 14:00N 54°19' W 130°19'0 0.0
2018-Apr-20 13:30N 54°19' W 130°19'0 0.0
2018-Apr-20 13:00N 54°19' W 130°19'0 0.0
2018-Apr-20 12:30N 54°19' W 130°19'0 0.0
2018-Apr-20 12:00N 54°19' W 130°19'0 0.0
2018-Apr-20 11:30N 54°19' W 130°19'0 0.0
2018-Apr-20 11:00N 54°19' W 130°19'0 0.0
2018-Apr-20 10:30N 54°19' W 130°19'0 0.0
2018-Apr-20 10:00N 54°19' W 130°19'0 0.0
2018-Apr-20 09:30N 54°19' W 130°19'0 0.0
2018-Apr-20 09:00N 54°19' W 130°19'0 0.0
2018-Apr-20 08:30N 54°19' W 130°19'0 0.0
2018-Apr-20 08:00N 54°19' W 130°19'0 0.0
2018-Apr-20 07:30N 54°19' W 130°19'0 0.0
2018-Apr-20 06:59N 54°19' W 130°19'0 0.0
2018-Apr-20 06:30N 54°19' W 130°19'0 0.0
2018-Apr-20 06:00N 54°19' W 130°19'0 0.0
2018-Apr-20 05:30N 54°19' W 130°19'0 0.0
2018-Apr-20 05:00N 54°19' W 130°19'0 0.0
2018-Apr-20 04:30N 54°19' W 130°19'0 0.0
2018-Apr-20 04:00N 54°19' W 130°19'0 0.0
2018-Apr-20 03:30N 54°19' W 130°19'0 0.0
2018-Apr-20 03:00N 54°19' W 130°19'0 0.0
2018-Apr-20 02:30N 54°19' W 130°19'0 0.0
2018-Apr-20 02:00N 54°19' W 130°19'0 0.0
2018-Apr-20 01:31N 54°19' W 130°19'0 0.0
2018-Apr-20 01:00N 54°19' W 130°19'0 0.0
2018-Apr-20 00:30N 54°19' W 130°19'0 0.0
2018-Apr-20 00:00N 54°19' W 130°19'0 0.0
2018-Apr-19 23:30N 54°19' W 130°19'0 0.0
2018-Apr-19 23:00N 54°19' W 130°19'0 0.0
2018-Apr-19 22:30N 54°19' W 130°19'0 0.0
2018-Apr-19 22:01N 54°19' W 130°19'0 0.0
2018-Apr-19 21:30N 54°19' W 130°19'0 0.0
2018-Apr-19 21:00N 54°19' W 130°19'0 0.0
2018-Apr-19 20:30N 54°19' W 130°19'0 0.0
2018-Apr-19 20:00N 54°19' W 130°19'0 0.0
2018-Apr-19 19:30N 54°19' W 130°19'0 0.0
2018-Apr-19 19:00N 54°19' W 130°19'0 0.0
2018-Apr-19 18:30N 54°19' W 130°19'0 0.0
2018-Apr-19 17:58N 54°19' W 130°19'0 0.0
2018-Apr-19 17:30N 54°19' W 130°19'0 0.0
2018-Apr-19 17:00N 54°19' W 130°19'0 0.0
2018-Apr-19 16:30N 54°19' W 130°19'0 0.0
2018-Apr-19 16:00N 54°19' W 130°19'0 0.0
2018-Apr-19 15:30N 54°19' W 130°19'0 0.0
2018-Apr-19 15:00N 54°19' W 130°19'0 0.0
2018-Apr-19 14:31N 54°19' W 130°19'0 0.0
2018-Apr-19 14:00N 54°19' W 130°19'0 0.0
2018-Apr-19 13:30N 54°19' W 130°19'0 0.0
2018-Apr-19 13:00N 54°19' W 130°19'0 0.0
2018-Apr-19 12:30N 54°19' W 130°19'0 0.0
2018-Apr-19 12:01N 54°19' W 130°19'0 0.0
2018-Apr-19 11:30N 54°19' W 130°19'0 0.0
2018-Apr-19 11:00N 54°19' W 130°19'0 0.0
2018-Apr-19 10:30N 54°19' W 130°19'0 0.0
2018-Apr-19 10:00N 54°19' W 130°19'0 0.0
2018-Apr-19 09:31N 54°19' W 130°19'0 0.0
2018-Apr-19 09:00N 54°19' W 130°19'0 0.0
2018-Apr-19 08:30N 54°19' W 130°19'0 0.0
2018-Apr-19 08:00N 54°19' W 130°19'0 0.0
2018-Apr-19 07:30N 54°19' W 130°19'0 0.0
2018-Apr-19 06:59N 54°19' W 130°19'0 0.0
2018-Apr-19 06:31N 54°19' W 130°19'0 0.0
2018-Apr-19 06:00N 54°19' W 130°19'0 0.0
2018-Apr-19 05:30N 54°19' W 130°19'0 0.0
2018-Apr-19 05:00N 54°19' W 130°19'0 0.0
2018-Apr-19 04:30N 54°19' W 130°19'0 0.0
2018-Apr-19 04:00N 54°19' W 130°19'0 0.0
2018-Apr-19 03:30N 54°19' W 130°19'0 0.0
2018-Apr-19 03:00N 54°19' W 130°19'0 0.0
2018-Apr-19 02:30N 54°19' W 130°19'0 0.0
2018-Apr-19 02:00N 54°19' W 130°19'0 0.0
2018-Apr-19 01:30N 54°19' W 130°19'0 0.0
2018-Apr-19 01:00N 54°19' W 130°19'0 0.0
2018-Apr-19 00:30N 54°19' W 130°19'0 0.0
2018-Apr-19 00:00N 54°19' W 130°19'0 0.0
2018-Apr-18 23:30N 54°19' W 130°19'0 0.0
2018-Apr-18 23:00N 54°19' W 130°19'0 0.0
2018-Apr-18 22:30N 54°19' W 130°19'0 0.0
2018-Apr-18 22:00N 54°19' W 130°19'0 0.0
2018-Apr-18 21:31N 54°19' W 130°19'0 0.0
2018-Apr-18 21:00N 54°19' W 130°19'0 0.0
2018-Apr-18 20:30N 54°19' W 130°19'0 0.0
2018-Apr-18 20:00N 54°19' W 130°19'0 0.0
2018-Apr-18 19:30N 54°19' W 130°19'0 0.0
2018-Apr-18 19:00N 54°19' W 130°19'0 0.0
2018-Apr-18 18:27N 54°19' W 130°19'0 0.0
2018-Apr-18 18:00N 54°19' W 130°19'0 0.0
2018-Apr-18 17:29N 54°19' W 130°19'0 0.0
2018-Apr-18 17:00N 54°19' W 130°19'0 0.0
2018-Apr-18 16:28N 54°19' W 130°19'0 0.0
2018-Apr-18 16:00N 54°19' W 130°19'0 0.0
2018-Apr-18 15:31N 54°19' W 130°19'0 0.0
2018-Apr-18 15:01N 54°19' W 130°19'0 0.0
2018-Apr-18 14:30N 54°19' W 130°19'0 0.0
2018-Apr-18 14:00N 54°19' W 130°19'0 0.0
2018-Apr-18 13:30N 54°19' W 130°19'0 0.0
2018-Apr-18 13:00N 54°19' W 130°19'0 0.0
2018-Apr-18 12:30N 54°19' W 130°19'0 0.0
2018-Apr-18 12:00N 54°19' W 130°19'0 0.0
2018-Apr-18 11:30N 54°19' W 130°19'0 0.0
2018-Apr-18 10:59N 54°19' W 130°19'0 0.0
2018-Apr-18 10:30N 54°19' W 130°19'0 0.0
2018-Apr-18 09:56N 54°19' W 130°19'0 0.0
2018-Apr-18 09:30N 54°19' W 130°19'0 0.0
2018-Apr-18 09:01N 54°19' W 130°19'0 0.0
2018-Apr-18 08:30N 54°19' W 130°19'0 0.0
2018-Apr-18 08:01N 54°19' W 130°19'0 0.0
2018-Apr-18 07:30N 54°19' W 130°19'0 0.0
2018-Apr-18 07:00N 54°19' W 130°19'0 0.0
2018-Apr-18 06:30N 54°19' W 130°19'0 0.0
2018-Apr-18 06:00N 54°19' W 130°19'0 0.0
2018-Apr-18 05:30N 54°19' W 130°19'0 0.0
2018-Apr-18 05:00N 54°19' W 130°19'0 0.0
2018-Apr-18 04:30N 54°19' W 130°19'0 0.0
2018-Apr-18 04:00N 54°19' W 130°19'0 0.0
2018-Apr-18 03:31N 54°19' W 130°19'0 0.0
2018-Apr-18 03:00N 54°19' W 130°19'0 0.0
2018-Apr-18 02:30N 54°19' W 130°19'0 0.0
2018-Apr-18 02:00N 54°19' W 130°19'0 0.0
2018-Apr-18 01:31N 54°19' W 130°19'0 0.0
2018-Apr-18 01:00N 54°19' W 130°19'0 0.0
2018-Apr-18 00:30N 54°19' W 130°19'0 0.0
2018-Apr-18 00:00N 54°19' W 130°19'0 0.0
2018-Apr-17 23:30N 54°19' W 130°19'0 0.0
2018-Apr-17 23:00N 54°19' W 130°19'0 0.0
2018-Apr-17 22:30N 54°19' W 130°19'0 0.0
2018-Apr-17 22:00N 54°19' W 130°19'0 0.0
2018-Apr-17 21:31N 54°19' W 130°19'0 0.0
2018-Apr-17 21:00N 54°19' W 130°19'0 0.0
2018-Apr-17 20:30N 54°19' W 130°19'0 0.0
2018-Apr-17 20:00N 54°19' W 130°19'0 0.0
2018-Apr-17 19:30N 54°19' W 130°19'0 0.0
2018-Apr-17 19:00N 54°19' W 130°19'0 0.0
2018-Apr-17 18:30N 54°19' W 130°19'0 0.0
2018-Apr-17 18:00N 54°19' W 130°19'0 0.0
2018-Apr-17 17:30N 54°19' W 130°19'0 0.1
2018-Apr-17 17:00N 54°19' W 130°19'0 0.1
2018-Apr-17 16:30N 54°19' W 130°19'0 0.0
2018-Apr-17 16:00N 54°19' W 130°19'0 0.0
2018-Apr-17 15:27N 54°19' W 130°19'0 0.0
2018-Apr-17 15:00N 54°19' W 130°19'0 0.4
2018-Apr-17 14:22N 54°19' W 130°19'0 0.0
2018-Apr-17 13:52N 54°19' W 130°19'0 0.0
2018-Apr-17 13:30N 54°19' W 130°19'0 0.0
2018-Apr-17 13:00N 54°19' W 130°19'0 0.0
2018-Apr-17 12:30N 54°19' W 130°19'0 0.0
2018-Apr-17 12:00N 54°19' W 130°19'0 0.0
2018-Apr-17 11:29N 54°19' W 130°19'0 0.0
2018-Apr-17 11:00N 54°19' W 130°19'0 0.0
2018-Apr-17 10:30N 54°19' W 130°19'1 2.0
2018-Apr-17 10:00N 54°18' W 130°21'3 6.7
2018-Apr-17 09:30N 54°15' W 130°21'2 4.9
2018-Apr-17 09:00N 54°13' W 130°24'3 6.6
2018-Apr-17 08:30N 54°14' W 130°29'3 6.1
2018-Apr-17 08:00N 54°15' W 130°34'3 5.4
2018-Apr-17 07:30N 54°15' W 130°39'3 6.8
2018-Apr-17 07:00N 54°17' W 130°44'3 6.9
2018-Apr-17 06:30N 54°19' W 130°49'3 6.9
2018-Apr-17 06:00N 54°19' W 130°55'3 6.5
2018-Apr-17 05:30N 54°19' W 131°01'3 6.8
2018-Apr-17 05:00N 54°19' W 131°06'4 7.3
2018-Apr-17 04:30N 54°19' W 131°13'4 7.7
2018-Apr-17 04:00N 54°18' W 131°19'  

Dump ship's entire track history